Terminal Aerodrome Forecast
Issued by NWS

Home | Current Version | Previous Version | Text Only | Print | Product List | Glossary On
Versions: 1 2 3 4 5 6 7 8 9 10 11 12 13 14 15 16 17 18
000
FTUS45 KBOI 061742
TAFTWF
TAF
KTWF 061742Z 0618/0718 06012KT P6SM VCSH FEW080 SCT120
     FM062300 12013G21KT P6SM -RA BKN050 OVC080
      TEMPO 0623/0703 VRB20G35KT -TSRA OVC050CB
     FM070400 04010KT P6SM -SHRA OVC060
     FM071200 10006KT P6SM SCT080 BKN130=

USA.gov is the U.S. government's official web portal to all federal, state and local government web resources and services.